Mc Entire JNGB Airport
KMMT : now visible

Airfield :











YOU CAN JOIN US ON...

 
LOGIN :

Register | Disclaimer

   EN    FR    IT 

 









Legend :    VFR   Marginal VFR   IFR   Intensive IFR   Very Intensive IFR
Visi :
Ceiling :
>= 8 km
>= 3000ft
5 to 8 km
1000 to 3000 ft
1500m to 5 km
500 to 1000 ft
800 to 1500m
200 to 500 ft
< 800m
< 200 ft
Symbols :   Thunderstorms  Fog  Heavy snow  Heavy precipitations  Wind > 20 kt






- Airport Elevation : 254 ft


KMMT - Mc Entire JNGB

CURRENT METAR :
  • 261355Z AUTO 00000KT 10SM CLR 26/21 A2991 RMK AO2 SLP129 T02610208 $

EXPIRED METARs :
  • 261255Z AUTO 23004KT 10SM CLR 24/20 A2990 RMK AO2 SLP126 T02370202 $
  • 261155Z AUTO 00000KT 10SM CLR 21/19 A2989 RMK AO2 SLP122 T02080189 10208 20172 52015 $
  • 261055Z AUTO 00000KT 9SM CLR 17/16 A2989 RMK AO2 SLP122 T01720164 $
  • 260955Z AUTO 00000KT 9SM CLR 18/17 A2986 RMK AO2 SLP112 T01810173 $

TAF TAF KMMT
Valid from the 26 at 07:00 until the 27 at 13:00 UTC


260700Z 2607/2713 VRB06KT 8000 BR FEW015 QNH2984INS TX30/2621Z TN19/2610Z
KZJX FIR / North America



MET'MAP, your aeronautical weather chart ! - Copyright ORBIFLY December 2007 - Disclaimer

ORBIFLY MET'MAP TEAM :

Programming & Development : Alexandra Zaïnal
Original concept : Baudouin d'Aumeries
Technical & hardware support : Manuel Goepfert
Assistance : Marc-Olivier Méhu




SOURCES & CREDITS :

   NOAA       Earth
Advisory